sensor_id;sensor_type;location;lat;lon;timestamp;P1;durP1;ratioP1;P2;durP2;ratioP2
36575;SDS011;45700;50.930;5.168;2023-05-24T00:03:16;4.65;;;1.38;;
36575;SDS011;45700;50.930;5.168;2023-05-24T00:07:18;13.38;;;1.58;;
36575;SDS011;45700;50.930;5.168;2023-05-24T00:11:19;15.43;;;2.22;;
36575;SDS011;45700;50.930;5.168;2023-05-24T00:15:21;11.80;;;1.63;;
36575;SDS011;45700;50.930;5.168;2023-05-24T00:19:22;8.30;;;1.42;;
36575;SDS011;45700;50.930;5.168;2023-05-24T00:23:23;9.90;;;1.40;;
36575;SDS011;45700;50.930;5.168;2023-05-24T00:27:24;15.98;;;2.00;;
36575;SDS011;45700;50.930;5.168;2023-05-24T00:31:25;13.35;;;1.88;;
36575;SDS011;45700;50.930;5.168;2023-05-24T00:35:27;8.55;;;1.42;;
36575;SDS011;45700;50.930;5.168;2023-05-24T00:39:28;9.00;;;1.88;;
36575;SDS011;45700;50.930;5.168;2023-05-24T00:43:28;12.23;;;2.05;;
36575;SDS011;45700;50.930;5.168;2023-05-24T00:47:30;13.27;;;1.63;;
36575;SDS011;45700;50.930;5.168;2023-05-24T00:51:31;7.13;;;1.75;;
36575;SDS011;45700;50.930;5.168;2023-05-24T00:55:33;5.00;;;1.33;;
36575;SDS011;45700;50.930;5.168;2023-05-24T00:59:35;8.48;;;2.58;;
36575;SDS011;45700;50.930;5.168;2023-05-24T01:03:36;9.43;;;1.60;;
36575;SDS011;45700;50.930;5.168;2023-05-24T01:16:21;9.30;;;2.10;;
36575;SDS011;45700;50.930;5.168;2023-05-24T01:20:24;17.60;;;3.35;;
36575;SDS011;45700;50.930;5.168;2023-05-24T01:32:49;15.00;;;3.28;;
36575;SDS011;45700;50.930;5.168;2023-05-24T01:36:50;9.57;;;2.85;;
36575;SDS011;45700;50.930;5.168;2023-05-24T01:40:54;16.55;;;2.78;;
36575;SDS011;45700;50.930;5.168;2023-05-24T01:45:01;8.80;;;3.00;;
36575;SDS011;45700;50.930;5.168;2023-05-24T01:53:08;6.53;;;2.90;;
36575;SDS011;45700;50.930;5.168;2023-05-24T01:57:12;9.93;;;2.38;;
36575;SDS011;45700;50.930;5.168;2023-05-24T02:01:14;12.35;;;3.40;;
36575;SDS011;45700;50.930;5.168;2023-05-24T02:05:15;8.57;;;2.65;;
36575;SDS011;45700;50.930;5.168;2023-05-24T02:09:16;16.52;;;3.70;;
36575;SDS011;45700;50.930;5.168;2023-05-24T02:13:17;9.57;;;2.30;;
36575;SDS011;45700;50.930;5.168;2023-05-24T02:17:18;11.65;;;2.83;;
36575;SDS011;45700;50.930;5.168;2023-05-24T02:21:19;17.15;;;3.65;;
36575;SDS011;45700;50.930;5.168;2023-05-24T02:25:22;16.25;;;3.33;;
36575;SDS011;45700;50.930;5.168;2023-05-24T02:29:23;14.95;;;2.80;;
36575;SDS011;45700;50.930;5.168;2023-05-24T02:33:24;17.20;;;3.10;;
36575;SDS011;45700;50.930;5.168;2023-05-24T02:37:25;13.18;;;3.15;;
36575;SDS011;45700;50.930;5.168;2023-05-24T02:41:26;8.75;;;2.72;;
36575;SDS011;45700;50.930;5.168;2023-05-24T02:45:27;12.57;;;2.92;;
36575;SDS011;45700;50.930;5.168;2023-05-24T02:49:28;11.38;;;3.05;;
36575;SDS011;45700;50.930;5.168;2023-05-24T02:53:30;13.95;;;3.20;;
36575;SDS011;45700;50.930;5.168;2023-05-24T02:57:31;7.72;;;2.45;;
36575;SDS011;45700;50.930;5.168;2023-05-24T03:01:36;8.95;;;2.88;;
36575;SDS011;45700;50.930;5.168;2023-05-24T03:05:39;10.70;;;2.60;;
36575;SDS011;45700;50.930;5.168;2023-05-24T03:09:40;14.25;;;3.90;;
36575;SDS011;45700;50.930;5.168;2023-05-24T03:13:41;19.67;;;3.08;;
36575;SDS011;45700;50.930;5.168;2023-05-24T03:17:43;13.75;;;2.75;;
36575;SDS011;45700;50.930;5.168;2023-05-24T03:21:44;14.80;;;2.80;;
36575;SDS011;45700;50.930;5.168;2023-05-24T03:25:45;12.13;;;3.22;;
36575;SDS011;45700;50.930;5.168;2023-05-24T03:29:46;10.63;;;2.75;;
36575;SDS011;45700;50.930;5.168;2023-05-24T03:33:47;9.05;;;3.20;;
36575;SDS011;45700;50.930;5.168;2023-05-24T03:37:48;14.75;;;3.28;;
36575;SDS011;45700;50.930;5.168;2023-05-24T03:41:49;15.48;;;3.63;;
36575;SDS011;45700;50.930;5.168;2023-05-24T03:45:50;9.13;;;3.33;;
36575;SDS011;45700;50.930;5.168;2023-05-24T03:49:51;8.63;;;3.15;;
36575;SDS011;45700;50.930;5.168;2023-05-24T03:53:52;12.90;;;3.30;;
36575;SDS011;45700;50.930;5.168;2023-05-24T03:57:53;10.35;;;2.97;;
36575;SDS011;45700;50.930;5.168;2023-05-24T04:01:54;13.07;;;3.17;;
36575;SDS011;45700;50.930;5.168;2023-05-24T04:05:55;8.52;;;3.20;;
36575;SDS011;45700;50.930;5.168;2023-05-24T04:09:56;12.85;;;3.92;;
36575;SDS011;45700;50.930;5.168;2023-05-24T04:13:57;20.20;;;4.90;;
36575;SDS011;45700;50.930;5.168;2023-05-24T04:18:02;15.90;;;3.30;;
36575;SDS011;45700;50.930;5.168;2023-05-24T04:22:03;17.33;;;4.25;;
36575;SDS011;45700;50.930;5.168;2023-05-24T04:26:04;17.75;;;4.05;;
36575;SDS011;45700;50.930;5.168;2023-05-24T04:30:06;20.08;;;3.80;;
36575;SDS011;45700;50.930;5.168;2023-05-24T04:34:08;13.38;;;3.58;;
36575;SDS011;45700;50.930;5.168;2023-05-24T04:38:12;14.02;;;3.75;;
36575;SDS011;45700;50.930;5.168;2023-05-24T04:42:14;13.30;;;3.35;;
36575;SDS011;45700;50.930;5.168;2023-05-24T04:46:15;21.88;;;4.90;;
36575;SDS011;45700;50.930;5.168;2023-05-24T04:50:16;12.70;;;2.65;;
36575;SDS011;45700;50.930;5.168;2023-05-24T04:54:17;21.65;;;4.10;;
36575;SDS011;45700;50.930;5.168;2023-05-24T04:58:18;14.23;;;3.75;;
36575;SDS011;45700;50.930;5.168;2023-05-24T05:02:19;14.48;;;3.13;;
36575;SDS011;45700;50.930;5.168;2023-05-24T05:06:21;16.85;;;3.63;;
36575;SDS011;45700;50.930;5.168;2023-05-24T05:10:22;16.67;;;3.97;;
36575;SDS011;45700;50.930;5.168;2023-05-24T05:14:23;10.55;;;3.88;;
36575;SDS011;45700;50.930;5.168;2023-05-24T05:18:24;11.45;;;3.70;;
36575;SDS011;45700;50.930;5.168;2023-05-24T05:22:25;12.52;;;3.47;;
36575;SDS011;45700;50.930;5.168;2023-05-24T05:26:26;9.85;;;3.55;;
36575;SDS011;45700;50.930;5.168;2023-05-24T05:30:28;12.68;;;4.55;;
36575;SDS011;45700;50.930;5.168;2023-05-24T05:34:29;11.15;;;4.57;;
36575;SDS011;45700;50.930;5.168;2023-05-24T05:38:30;14.77;;;5.45;;
36575;SDS011;45700;50.930;5.168;2023-05-24T05:42:30;17.13;;;4.32;;
36575;SDS011;45700;50.930;5.168;2023-05-24T05:46:32;14.18;;;4.50;;
36575;SDS011;45700;50.930;5.168;2023-05-24T05:50:32;16.70;;;5.35;;
36575;SDS011;45700;50.930;5.168;2023-05-24T05:54:33;12.48;;;4.50;;
36575;SDS011;45700;50.930;5.168;2023-05-24T05:58:35;18.42;;;4.43;;
36575;SDS011;45700;50.930;5.168;2023-05-24T06:02:37;13.30;;;4.25;;
36575;SDS011;45700;50.930;5.168;2023-05-24T06:06:38;15.05;;;4.78;;
36575;SDS011;45700;50.930;5.168;2023-05-24T06:10:39;16.20;;;3.78;;
36575;SDS011;45700;50.930;5.168;2023-05-24T06:14:40;10.32;;;4.13;;
36575;SDS011;45700;50.930;5.168;2023-05-24T06:18:42;10.35;;;3.75;;
36575;SDS011;45700;50.930;5.168;2023-05-24T06:22:43;16.85;;;3.88;;
36575;SDS011;45700;50.930;5.168;2023-05-24T06:26:45;19.33;;;4.45;;
36575;SDS011;45700;50.930;5.168;2023-05-24T06:30:46;9.90;;;3.10;;
36575;SDS011;45700;50.930;5.168;2023-05-24T06:34:47;18.10;;;4.32;;
36575;SDS011;45700;50.930;5.168;2023-05-24T06:38:48;17.33;;;2.85;;
36575;SDS011;45700;50.930;5.168;2023-05-24T06:42:49;17.50;;;3.15;;
36575;SDS011;45700;50.930;5.168;2023-05-24T06:46:50;15.10;;;4.00;;
36575;SDS011;45700;50.930;5.168;2023-05-24T06:50:51;12.45;;;3.42;;
36575;SDS011;45700;50.930;5.168;2023-05-24T06:54:52;19.02;;;3.53;;
36575;SDS011;45700;50.930;5.168;2023-05-24T06:58:53;14.02;;;3.15;;
36575;SDS011;45700;50.930;5.168;2023-05-24T07:02:55;19.90;;;3.50;;
36575;SDS011;45700;50.930;5.168;2023-05-24T07:06:56;17.42;;;3.47;;
36575;SDS011;45700;50.930;5.168;2023-05-24T07:10:57;16.10;;;3.30;;
36575;SDS011;45700;50.930;5.168;2023-05-24T07:14:58;10.70;;;2.50;;
36575;SDS011;45700;50.930;5.168;2023-05-24T07:18:59;14.52;;;2.22;;
36575;SDS011;45700;50.930;5.168;2023-05-24T07:23:01;12.93;;;2.38;;
36575;SDS011;45700;50.930;5.168;2023-05-24T07:27:02;13.27;;;2.38;;
36575;SDS011;45700;50.930;5.168;2023-05-24T07:31:04;9.63;;;2.17;;
36575;SDS011;45700;50.930;5.168;2023-05-24T07:35:07;15.63;;;3.00;;
36575;SDS011;45700;50.930;5.168;2023-05-24T07:39:08;12.05;;;2.10;;
36575;SDS011;45700;50.930;5.168;2023-05-24T07:43:09;14.10;;;2.83;;
36575;SDS011;45700;50.930;5.168;2023-05-24T07:47:10;10.07;;;2.97;;
36575;SDS011;45700;50.930;5.168;2023-05-24T07:51:11;14.38;;;2.85;;
36575;SDS011;45700;50.930;5.168;2023-05-24T07:55:12;11.38;;;2.30;;
36575;SDS011;45700;50.930;5.168;2023-05-24T07:59:13;11.70;;;2.60;;
36575;SDS011;45700;50.930;5.168;2023-05-24T08:03:14;14.48;;;2.80;;
36575;SDS011;45700;50.930;5.168;2023-05-24T08:07:16;18.20;;;3.38;;
36575;SDS011;45700;50.930;5.168;2023-05-24T08:11:17;14.23;;;2.70;;
36575;SDS011;45700;50.930;5.168;2023-05-24T08:15:18;9.13;;;2.60;;
36575;SDS011;45700;50.930;5.168;2023-05-24T08:19:19;12.63;;;3.00;;
36575;SDS011;45700;50.930;5.168;2023-05-24T08:23:20;10.43;;;2.88;;
36575;SDS011;45700;50.930;5.168;2023-05-24T08:27:21;9.65;;;2.88;;
36575;SDS011;45700;50.930;5.168;2023-05-24T08:31:22;12.05;;;3.38;;
36575;SDS011;45700;50.930;5.168;2023-05-24T08:35:23;15.95;;;2.85;;
36575;SDS011;45700;50.930;5.168;2023-05-24T08:39:24;13.32;;;2.70;;
36575;SDS011;45700;50.930;5.168;2023-05-24T08:43:25;8.07;;;2.00;;
36575;SDS011;45700;50.930;5.168;2023-05-24T08:47:28;9.23;;;2.05;;
36575;SDS011;45700;50.930;5.168;2023-05-24T08:51:30;8.77;;;2.33;;
36575;SDS011;45700;50.930;5.168;2023-05-24T08:55:31;4.03;;;1.92;;
36575;SDS011;45700;50.930;5.168;2023-05-24T08:59:33;10.98;;;1.98;;
36575;SDS011;45700;50.930;5.168;2023-05-24T09:03:35;8.52;;;2.38;;
36575;SDS011;45700;50.930;5.168;2023-05-24T09:07:36;12.52;;;2.17;;
36575;SDS011;45700;50.930;5.168;2023-05-24T09:11:37;7.07;;;1.95;;
36575;SDS011;45700;50.930;5.168;2023-05-24T09:15:40;9.30;;;2.80;;
36575;SDS011;45700;50.930;5.168;2023-05-24T09:19:44;6.75;;;2.35;;
36575;SDS011;45700;50.930;5.168;2023-05-24T09:23:45;14.63;;;2.88;;
36575;SDS011;45700;50.930;5.168;2023-05-24T09:27:50;11.35;;;2.65;;
36575;SDS011;45700;50.930;5.168;2023-05-24T09:31:53;7.47;;;2.35;;
36575;SDS011;45700;50.930;5.168;2023-05-24T09:36:00;7.32;;;2.15;;
36575;SDS011;45700;50.930;5.168;2023-05-24T09:40:01;8.50;;;2.30;;
36575;SDS011;45700;50.930;5.168;2023-05-24T09:44:05;17.02;;;3.05;;
36575;SDS011;45700;50.930;5.168;2023-05-24T09:48:10;7.70;;;2.33;;
36575;SDS011;45700;50.930;5.168;2023-05-24T09:52:14;13.40;;;2.78;;
36575;SDS011;45700;50.930;5.168;2023-05-24T09:56:15;11.85;;;2.30;;
36575;SDS011;45700;50.930;5.168;2023-05-24T10:00:20;19.00;;;3.55;;
36575;SDS011;45700;50.930;5.168;2023-05-24T10:04:31;13.07;;;3.38;;
36575;SDS011;45700;50.930;5.168;2023-05-24T10:08:33;9.65;;;3.40;;
36575;SDS011;45700;50.930;5.168;2023-05-24T10:12:35;15.32;;;3.33;;
36575;SDS011;45700;50.930;5.168;2023-05-24T10:16:41;11.25;;;3.10;;
36575;SDS011;45700;50.930;5.168;2023-05-24T10:20:42;12.35;;;2.63;;
36575;SDS011;45700;50.930;5.168;2023-05-24T10:24:46;16.60;;;3.47;;
36575;SDS011;45700;50.930;5.168;2023-05-24T10:28:51;9.13;;;2.67;;
36575;SDS011;45700;50.930;5.168;2023-05-24T10:32:54;9.00;;;2.45;;
36575;SDS011;45700;50.930;5.168;2023-05-24T10:36:57;15.32;;;4.10;;
36575;SDS011;45700;50.930;5.168;2023-05-24T10:40:58;12.45;;;3.72;;
36575;SDS011;45700;50.930;5.168;2023-05-24T10:45:00;7.63;;;3.38;;
36575;SDS011;45700;50.930;5.168;2023-05-24T10:49:15;10.63;;;3.08;;
36575;SDS011;45700;50.930;5.168;2023-05-24T10:53:20;15.98;;;3.65;;
36575;SDS011;45700;50.930;5.168;2023-05-24T10:57:22;18.02;;;3.67;;
36575;SDS011;45700;50.930;5.168;2023-05-24T11:01:28;8.30;;;3.13;;
36575;SDS011;45700;50.930;5.168;2023-05-24T11:05:33;14.48;;;3.35;;
36575;SDS011;45700;50.930;5.168;2023-05-24T11:09:35;7.63;;;2.67;;
36575;SDS011;45700;50.930;5.168;2023-05-24T11:13:38;7.03;;;3.33;;
36575;SDS011;45700;50.930;5.168;2023-05-24T11:18:24;11.15;;;3.53;;
36575;SDS011;45700;50.930;5.168;2023-05-24T11:22:01;14.75;;;4.25;;
36575;SDS011;45700;50.930;5.168;2023-05-24T11:26:03;16.10;;;3.80;;
36575;SDS011;45700;50.930;5.168;2023-05-24T11:30:04;18.65;;;4.60;;
36575;SDS011;45700;50.930;5.168;2023-05-24T11:34:08;15.73;;;3.65;;
36575;SDS011;45700;50.930;5.168;2023-05-24T11:38:10;11.25;;;4.22;;
36575;SDS011;45700;50.930;5.168;2023-05-24T11:42:14;10.02;;;3.78;;
36575;SDS011;45700;50.930;5.168;2023-05-24T11:46:16;12.00;;;3.22;;
36575;SDS011;45700;50.930;5.168;2023-05-24T11:50:22;9.20;;;2.97;;
36575;SDS011;45700;50.930;5.168;2023-05-24T11:54:24;29.58;;;4.57;;
36575;SDS011;45700;50.930;5.168;2023-05-24T11:58:37;12.80;;;2.92;;
36575;SDS011;45700;50.930;5.168;2023-05-24T12:02:41;9.90;;;2.80;;
36575;SDS011;45700;50.930;5.168;2023-05-24T12:06:43;12.25;;;3.20;;
36575;SDS011;45700;50.930;5.168;2023-05-24T12:10:45;8.82;;;2.90;;
36575;SDS011;45700;50.930;5.168;2023-05-24T12:14:48;14.73;;;3.28;;
36575;SDS011;45700;50.930;5.168;2023-05-24T12:18:50;10.65;;;4.05;;
36575;SDS011;45700;50.930;5.168;2023-05-24T12:22:51;7.25;;;2.85;;
36575;SDS011;45700;50.930;5.168;2023-05-24T12:26:56;12.02;;;3.60;;
36575;SDS011;45700;50.930;5.168;2023-05-24T12:30:58;17.65;;;4.13;;
36575;SDS011;45700;50.930;5.168;2023-05-24T12:34:59;10.60;;;3.05;;
36575;SDS011;45700;50.930;5.168;2023-05-24T12:39:03;13.90;;;3.53;;
36575;SDS011;45700;50.930;5.168;2023-05-24T12:43:05;10.38;;;3.05;;
36575;SDS011;45700;50.930;5.168;2023-05-24T12:47:06;10.07;;;3.00;;
36575;SDS011;45700;50.930;5.168;2023-05-24T12:51:07;14.57;;;3.03;;
36575;SDS011;45700;50.930;5.168;2023-05-24T12:55:08;10.57;;;3.58;;
36575;SDS011;45700;50.930;5.168;2023-05-24T12:59:10;12.35;;;3.63;;
36575;SDS011;45700;50.930;5.168;2023-05-24T13:03:11;13.55;;;3.35;;
36575;SDS011;45700;50.930;5.168;2023-05-24T13:07:12;13.82;;;3.95;;
36575;SDS011;45700;50.930;5.168;2023-05-24T13:11:13;13.88;;;4.10;;
36575;SDS011;45700;50.930;5.168;2023-05-24T13:15:14;12.38;;;4.97;;
36575;SDS011;45700;50.930;5.168;2023-05-24T13:19:15;12.93;;;3.85;;
36575;SDS011;45700;50.930;5.168;2023-05-24T13:23:16;13.20;;;3.15;;
36575;SDS011;45700;50.930;5.168;2023-05-24T13:27:17;14.85;;;4.63;;
36575;SDS011;45700;50.930;5.168;2023-05-24T13:31:18;21.23;;;4.18;;
36575;SDS011;45700;50.930;5.168;2023-05-24T13:35:19;14.43;;;4.13;;
36575;SDS011;45700;50.930;5.168;2023-05-24T13:39:21;14.13;;;4.07;;
36575;SDS011;45700;50.930;5.168;2023-05-24T13:43:22;10.05;;;4.00;;
36575;SDS011;45700;50.930;5.168;2023-05-24T13:47:23;15.15;;;3.72;;
36575;SDS011;45700;50.930;5.168;2023-05-24T13:51:25;7.60;;;3.88;;
36575;SDS011;45700;50.930;5.168;2023-05-24T13:55:26;11.82;;;3.72;;
36575;SDS011;45700;50.930;5.168;2023-05-24T13:59:28;11.93;;;4.15;;
36575;SDS011;45700;50.930;5.168;2023-05-24T14:03:29;9.07;;;3.67;;
36575;SDS011;45700;50.930;5.168;2023-05-24T14:07:30;13.88;;;4.32;;
36575;SDS011;45700;50.930;5.168;2023-05-24T14:11:31;9.15;;;4.20;;
36575;SDS011;45700;50.930;5.168;2023-05-24T14:15:33;7.13;;;3.20;;
36575;SDS011;45700;50.930;5.168;2023-05-24T14:19:34;8.60;;;3.17;;
36575;SDS011;45700;50.930;5.168;2023-05-24T14:23:34;6.20;;;2.45;;
36575;SDS011;45700;50.930;5.168;2023-05-24T14:27:35;8.13;;;2.38;;
36575;SDS011;45700;50.930;5.168;2023-05-24T14:31:37;7.60;;;2.47;;
36575;SDS011;45700;50.930;5.168;2023-05-24T14:35:41;6.25;;;2.60;;
36575;SDS011;45700;50.930;5.168;2023-05-24T14:39:42;7.97;;;2.63;;
36575;SDS011;45700;50.930;5.168;2023-05-24T14:43:43;12.07;;;2.58;;
36575;SDS011;45700;50.930;5.168;2023-05-24T14:47:44;11.93;;;2.60;;
36575;SDS011;45700;50.930;5.168;2023-05-24T14:51:46;10.07;;;2.30;;
36575;SDS011;45700;50.930;5.168;2023-05-24T14:55:48;7.38;;;2.53;;
36575;SDS011;45700;50.930;5.168;2023-05-24T14:59:49;9.75;;;2.63;;
36575;SDS011;45700;50.930;5.168;2023-05-24T15:03:50;6.82;;;1.95;;
36575;SDS011;45700;50.930;5.168;2023-05-24T15:07:51;15.82;;;3.13;;
36575;SDS011;45700;50.930;5.168;2023-05-24T15:11:52;17.35;;;2.70;;
36575;SDS011;45700;50.930;5.168;2023-05-24T15:15:53;4.68;;;1.83;;
36575;SDS011;45700;50.930;5.168;2023-05-24T15:19:55;8.35;;;2.33;;
36575;SDS011;45700;50.930;5.168;2023-05-24T15:23:58;7.25;;;2.22;;
36575;SDS011;45700;50.930;5.168;2023-05-24T15:27:59;8.75;;;2.20;;
36575;SDS011;45700;50.930;5.168;2023-05-24T15:32:00;6.50;;;2.63;;
36575;SDS011;45700;50.930;5.168;2023-05-24T15:36:02;7.18;;;2.63;;
36575;SDS011;45700;50.930;5.168;2023-05-24T15:40:04;5.25;;;2.05;;
36575;SDS011;45700;50.930;5.168;2023-05-24T15:44:06;6.97;;;2.33;;
36575;SDS011;45700;50.930;5.168;2023-05-24T15:48:07;7.03;;;2.10;;
36575;SDS011;45700;50.930;5.168;2023-05-24T15:52:09;11.68;;;2.10;;
36575;SDS011;45700;50.930;5.168;2023-05-24T15:56:10;13.18;;;1.95;;
36575;SDS011;45700;50.930;5.168;2023-05-24T16:00:11;10.70;;;3.22;;
36575;SDS011;45700;50.930;5.168;2023-05-24T16:04:12;6.40;;;2.00;;
36575;SDS011;45700;50.930;5.168;2023-05-24T16:08:14;8.02;;;2.30;;
36575;SDS011;45700;50.930;5.168;2023-05-24T16:12:16;5.63;;;1.95;;
36575;SDS011;45700;50.930;5.168;2023-05-24T16:16:17;6.63;;;2.42;;
36575;SDS011;45700;50.930;5.168;2023-05-24T16:20:21;9.45;;;2.20;;
36575;SDS011;45700;50.930;5.168;2023-05-24T16:24:22;8.57;;;1.92;;
36575;SDS011;45700;50.930;5.168;2023-05-24T16:28:23;8.75;;;2.15;;
36575;SDS011;45700;50.930;5.168;2023-05-24T16:32:24;7.85;;;2.25;;
36575;SDS011;45700;50.930;5.168;2023-05-24T16:36:25;6.45;;;1.70;;
36575;SDS011;45700;50.930;5.168;2023-05-24T16:40:26;8.75;;;2.40;;
36575;SDS011;45700;50.930;5.168;2023-05-24T16:44:28;7.55;;;1.80;;
36575;SDS011;45700;50.930;5.168;2023-05-24T16:48:29;9.65;;;2.17;;
36575;SDS011;45700;50.930;5.168;2023-05-24T16:52:30;8.65;;;2.20;;
36575;SDS011;45700;50.930;5.168;2023-05-24T16:56:31;9.63;;;2.35;;
36575;SDS011;45700;50.930;5.168;2023-05-24T17:00:32;6.28;;;2.03;;
36575;SDS011;45700;50.930;5.168;2023-05-24T17:04:33;10.10;;;2.20;;
36575;SDS011;45700;50.930;5.168;2023-05-24T17:08:34;6.85;;;1.90;;
36575;SDS011;45700;50.930;5.168;2023-05-24T17:12:35;6.88;;;2.47;;
36575;SDS011;45700;50.930;5.168;2023-05-24T17:16:37;9.82;;;2.38;;
36575;SDS011;45700;50.930;5.168;2023-05-24T17:20:38;9.48;;;1.83;;
36575;SDS011;45700;50.930;5.168;2023-05-24T17:24:39;9.75;;;2.83;;
36575;SDS011;45700;50.930;5.168;2023-05-24T17:28:41;6.32;;;1.48;;
36575;SDS011;45700;50.930;5.168;2023-05-24T17:32:43;6.88;;;1.80;;
36575;SDS011;45700;50.930;5.168;2023-05-24T17:36:45;8.40;;;2.30;;
36575;SDS011;45700;50.930;5.168;2023-05-24T17:40:46;7.65;;;1.90;;
36575;SDS011;45700;50.930;5.168;2023-05-24T17:44:50;7.85;;;2.60;;
36575;SDS011;45700;50.930;5.168;2023-05-24T17:48:51;5.40;;;1.98;;
36575;SDS011;45700;50.930;5.168;2023-05-24T17:52:52;7.78;;;2.10;;
36575;SDS011;45700;50.930;5.168;2023-05-24T17:56:53;8.18;;;1.90;;
36575;SDS011;45700;50.930;5.168;2023-05-24T18:00:55;7.47;;;2.00;;
36575;SDS011;45700;50.930;5.168;2023-05-24T18:04:56;9.90;;;2.25;;
36575;SDS011;45700;50.930;5.168;2023-05-24T18:08:57;7.80;;;1.88;;
36575;SDS011;45700;50.930;5.168;2023-05-24T18:12:58;6.07;;;2.10;;
36575;SDS011;45700;50.930;5.168;2023-05-24T18:16:59;7.43;;;1.75;;
36575;SDS011;45700;50.930;5.168;2023-05-24T18:21:00;13.45;;;2.30;;
36575;SDS011;45700;50.930;5.168;2023-05-24T18:25:01;11.43;;;2.72;;
36575;SDS011;45700;50.930;5.168;2023-05-24T18:29:02;8.95;;;2.55;;
36575;SDS011;45700;50.930;5.168;2023-05-24T18:33:03;8.18;;;2.17;;
36575;SDS011;45700;50.930;5.168;2023-05-24T18:37:05;8.85;;;2.25;;
36575;SDS011;45700;50.930;5.168;2023-05-24T18:41:06;6.78;;;2.40;;
36575;SDS011;45700;50.930;5.168;2023-05-24T18:45:11;8.77;;;2.40;;
36575;SDS011;45700;50.930;5.168;2023-05-24T18:49:12;9.25;;;2.25;;
36575;SDS011;45700;50.930;5.168;2023-05-24T18:53:14;10.60;;;2.30;;
36575;SDS011;45700;50.930;5.168;2023-05-24T18:57:15;6.20;;;2.33;;
36575;SDS011;45700;50.930;5.168;2023-05-24T19:01:16;12.73;;;2.47;;
36575;SDS011;45700;50.930;5.168;2023-05-24T19:05:18;11.20;;;2.88;;
36575;SDS011;45700;50.930;5.168;2023-05-24T19:09:19;7.13;;;2.00;;
36575;SDS011;45700;50.930;5.168;2023-05-24T19:13:20;6.47;;;2.50;;
36575;SDS011;45700;50.930;5.168;2023-05-24T19:17:21;9.25;;;2.10;;
36575;SDS011;45700;50.930;5.168;2023-05-24T19:21:23;8.77;;;1.95;;
36575;SDS011;45700;50.930;5.168;2023-05-24T19:25:25;8.50;;;1.77;;
36575;SDS011;45700;50.930;5.168;2023-05-24T19:29:26;9.02;;;2.53;;
36575;SDS011;45700;50.930;5.168;2023-05-24T19:33:27;5.65;;;2.33;;
36575;SDS011;45700;50.930;5.168;2023-05-24T19:37:28;9.10;;;2.30;;
36575;SDS011;45700;50.930;5.168;2023-05-24T19:41:29;8.50;;;2.55;;
36575;SDS011;45700;50.930;5.168;2023-05-24T19:45:30;6.43;;;2.00;;
36575;SDS011;45700;50.930;5.168;2023-05-24T19:49:31;5.15;;;1.98;;
36575;SDS011;45700;50.930;5.168;2023-05-24T19:53:32;7.35;;;2.40;;
36575;SDS011;45700;50.930;5.168;2023-05-24T19:57:33;7.90;;;2.40;;
36575;SDS011;45700;50.930;5.168;2023-05-24T20:01:34;14.88;;;3.13;;
36575;SDS011;45700;50.930;5.168;2023-05-24T20:05:35;6.07;;;2.05;;
36575;SDS011;45700;50.930;5.168;2023-05-24T20:09:36;7.88;;;2.42;;
36575;SDS011;45700;50.930;5.168;2023-05-24T20:13:37;8.48;;;2.10;;
36575;SDS011;45700;50.930;5.168;2023-05-24T20:17:38;10.88;;;2.13;;
36575;SDS011;45700;50.930;5.168;2023-05-24T20:21:40;11.23;;;2.40;;
36575;SDS011;45700;50.930;5.168;2023-05-24T20:25:41;10.25;;;2.88;;
36575;SDS011;45700;50.930;5.168;2023-05-24T20:29:42;11.55;;;2.75;;
36575;SDS011;45700;50.930;5.168;2023-05-24T20:33:43;8.80;;;2.70;;
36575;SDS011;45700;50.930;5.168;2023-05-24T20:37:44;8.30;;;2.42;;
36575;SDS011;45700;50.930;5.168;2023-05-24T20:41:45;9.82;;;2.65;;
36575;SDS011;45700;50.930;5.168;2023-05-24T20:45:46;9.73;;;2.67;;
36575;SDS011;45700;50.930;5.168;2023-05-24T20:49:47;5.47;;;2.60;;
36575;SDS011;45700;50.930;5.168;2023-05-24T20:53:48;11.73;;;2.70;;
36575;SDS011;45700;50.930;5.168;2023-05-24T20:57:51;10.25;;;2.60;;
36575;SDS011;45700;50.930;5.168;2023-05-24T21:01:52;11.75;;;2.45;;
36575;SDS011;45700;50.930;5.168;2023-05-24T21:05:53;13.25;;;3.90;;
36575;SDS011;45700;50.930;5.168;2023-05-24T21:09:54;10.38;;;2.75;;
36575;SDS011;45700;50.930;5.168;2023-05-24T21:13:55;12.88;;;3.60;;
36575;SDS011;45700;50.930;5.168;2023-05-24T21:17:57;9.07;;;2.70;;
36575;SDS011;45700;50.930;5.168;2023-05-24T21:21:58;8.90;;;2.50;;
36575;SDS011;45700;50.930;5.168;2023-05-24T21:25:59;8.95;;;2.72;;
36575;SDS011;45700;50.930;5.168;2023-05-24T21:30:01;9.90;;;3.15;;
36575;SDS011;45700;50.930;5.168;2023-05-24T21:34:02;15.35;;;3.03;;
36575;SDS011;45700;50.930;5.168;2023-05-24T21:38:03;11.05;;;2.58;;
36575;SDS011;45700;50.930;5.168;2023-05-24T21:42:04;13.98;;;2.90;;
36575;SDS011;45700;50.930;5.168;2023-05-24T21:46:05;10.40;;;3.10;;
36575;SDS011;45700;50.930;5.168;2023-05-24T21:50:06;10.77;;;2.88;;
36575;SDS011;45700;50.930;5.168;2023-05-24T21:54:07;12.48;;;2.45;;
36575;SDS011;45700;50.930;5.168;2023-05-24T21:58:08;11.05;;;2.67;;
36575;SDS011;45700;50.930;5.168;2023-05-24T22:02:09;9.02;;;3.00;;
36575;SDS011;45700;50.930;5.168;2023-05-24T22:06:10;5.85;;;1.92;;
36575;SDS011;45700;50.930;5.168;2023-05-24T22:10:11;10.93;;;2.58;;
36575;SDS011;45700;50.930;5.168;2023-05-24T22:14:12;7.72;;;2.80;;
36575;SDS011;45700;50.930;5.168;2023-05-24T22:18:14;9.40;;;2.83;;
36575;SDS011;45700;50.930;5.168;2023-05-24T22:22:20;5.88;;;2.60;;
36575;SDS011;45700;50.930;5.168;2023-05-24T22:26:21;10.55;;;3.45;;
36575;SDS011;45700;50.930;5.168;2023-05-24T22:30:23;17.52;;;2.78;;
36575;SDS011;45700;50.930;5.168;2023-05-24T22:34:25;8.15;;;3.42;;
36575;SDS011;45700;50.930;5.168;2023-05-24T22:38:26;8.70;;;2.60;;
36575;SDS011;45700;50.930;5.168;2023-05-24T22:42:27;14.02;;;2.90;;
36575;SDS011;45700;50.930;5.168;2023-05-24T22:46:28;7.32;;;2.40;;
36575;SDS011;45700;50.930;5.168;2023-05-24T22:50:30;8.07;;;2.50;;
36575;SDS011;45700;50.930;5.168;2023-05-24T22:54:31;6.25;;;2.42;;
36575;SDS011;45700;50.930;5.168;2023-05-24T22:58:32;6.85;;;2.55;;
36575;SDS011;45700;50.930;5.168;2023-05-24T23:02:33;7.97;;;2.53;;
36575;SDS011;45700;50.930;5.168;2023-05-24T23:06:35;13.75;;;2.35;;
36575;SDS011;45700;50.930;5.168;2023-05-24T23:10:38;11.27;;;2.80;;
36575;SDS011;45700;50.930;5.168;2023-05-24T23:14:44;7.20;;;2.40;;
36575;SDS011;45700;50.930;5.168;2023-05-24T23:18:45;7.97;;;2.70;;
36575;SDS011;45700;50.930;5.168;2023-05-24T23:22:46;9.18;;;2.78;;
36575;SDS011;45700;50.930;5.168;2023-05-24T23:26:47;11.80;;;2.50;;
36575;SDS011;45700;50.930;5.168;2023-05-24T23:30:48;13.48;;;3.45;;
36575;SDS011;45700;50.930;5.168;2023-05-24T23:34:49;7.47;;;2.67;;
36575;SDS011;45700;50.930;5.168;2023-05-24T23:38:50;9.50;;;2.63;;
36575;SDS011;45700;50.930;5.168;2023-05-24T23:42:51;7.78;;;2.63;;
36575;SDS011;45700;50.930;5.168;2023-05-24T23:46:52;15.00;;;2.92;;
36575;SDS011;45700;50.930;5.168;2023-05-24T23:50:55;10.55;;;2.50;;
36575;SDS011;45700;50.930;5.168;2023-05-24T23:54:56;6.78;;;2.30;;
36575;SDS011;45700;50.930;5.168;2023-05-24T23:58:57;5.25;;;2.67;;
